sensor_id;sensor_type;location;lat;lon;timestamp;P1;durP1;ratioP1;P2;durP2;ratioP2
23555;SDS011;11956;53.184;8.578;2023-07-29T00:00:12;37.42;;;26.48;;
23555;SDS011;11956;53.184;8.578;2023-07-29T00:03:12;26.20;;;23.30;;
23555;SDS011;11956;53.184;8.578;2023-07-29T00:06:13;36.28;;;29.17;;
23555;SDS011;11956;53.184;8.578;2023-07-29T00:09:14;31.58;;;27.75;;
23555;SDS011;11956;53.184;8.578;2023-07-29T00:12:15;30.02;;;26.60;;
23555;SDS011;11956;53.184;8.578;2023-07-29T00:15:16;33.20;;;26.92;;
23555;SDS011;11956;53.184;8.578;2023-07-29T00:18:17;38.08;;;29.58;;
23555;SDS011;11956;53.184;8.578;2023-07-29T00:21:18;38.25;;;28.58;;
23555;SDS011;11956;53.184;8.578;2023-07-29T00:24:19;40.42;;;28.55;;
23555;SDS011;11956;53.184;8.578;2023-07-29T00:27:19;33.25;;;25.48;;
23555;SDS011;11956;53.184;8.578;2023-07-29T00:30:22;33.50;;;25.57;;
23555;SDS011;11956;53.184;8.578;2023-07-29T00:33:23;35.30;;;26.00;;
23555;SDS011;11956;53.184;8.578;2023-07-29T00:36:24;32.88;;;24.15;;
23555;SDS011;11956;53.184;8.578;2023-07-29T00:39:25;31.38;;;23.92;;
23555;SDS011;11956;53.184;8.578;2023-07-29T00:42:25;31.60;;;23.17;;
23555;SDS011;11956;53.184;8.578;2023-07-29T00:45:27;32.70;;;24.23;;
23555;SDS011;11956;53.184;8.578;2023-07-29T00:48:30;38.03;;;26.70;;
23555;SDS011;11956;53.184;8.578;2023-07-29T00:51:31;33.60;;;24.98;;
23555;SDS011;11956;53.184;8.578;2023-07-29T00:54:32;33.22;;;24.85;;
23555;SDS011;11956;53.184;8.578;2023-07-29T00:57:33;36.70;;;25.63;;
23555;SDS011;11956;53.184;8.578;2023-07-29T01:00:34;38.13;;;25.83;;
23555;SDS011;11956;53.184;8.578;2023-07-29T01:03:37;52.88;;;30.23;;
23555;SDS011;11956;53.184;8.578;2023-07-29T01:06:47;39.35;;;27.88;;
23555;SDS011;11956;53.184;8.578;2023-07-29T01:10:10;79.93;;;35.42;;
23555;SDS011;11956;53.184;8.578;2023-07-29T01:13:48;40.22;;;28.27;;
23555;SDS011;11956;53.184;8.578;2023-07-29T01:20:01;88.05;;;30.23;;
23555;SDS011;11956;53.184;8.578;2023-07-29T01:23:09;79.53;;;30.55;;
23555;SDS011;11956;53.184;8.578;2023-07-29T01:26:10;33.50;;;24.88;;
23555;SDS011;11956;53.184;8.578;2023-07-29T01:29:11;40.17;;;26.85;;
23555;SDS011;11956;53.184;8.578;2023-07-29T01:32:17;39.92;;;26.90;;
23555;SDS011;11956;53.184;8.578;2023-07-29T01:35:33;53.65;;;27.25;;
23555;SDS011;11956;53.184;8.578;2023-07-29T01:38:42;40.78;;;27.13;;
23555;SDS011;11956;53.184;8.578;2023-07-29T01:41:44;41.75;;;27.92;;
23555;SDS011;11956;53.184;8.578;2023-07-29T01:44:46;41.50;;;28.25;;
23555;SDS011;11956;53.184;8.578;2023-07-29T01:47:47;45.53;;;28.98;;
23555;SDS011;11956;53.184;8.578;2023-07-29T01:50:49;44.58;;;28.58;;
23555;SDS011;11956;53.184;8.578;2023-07-29T01:53:50;56.70;;;27.63;;
23555;SDS011;11956;53.184;8.578;2023-07-29T01:56:51;44.67;;;25.13;;
23555;SDS011;11956;53.184;8.578;2023-07-29T01:59:52;31.17;;;23.75;;
23555;SDS011;11956;53.184;8.578;2023-07-29T02:02:53;31.05;;;23.00;;
23555;SDS011;11956;53.184;8.578;2023-07-29T02:05:53;29.20;;;23.45;;
23555;SDS011;11956;53.184;8.578;2023-07-29T02:08:54;153.30;;;29.90;;
23555;SDS011;11956;53.184;8.578;2023-07-29T02:11:56;90.18;;;28.48;;
23555;SDS011;11956;53.184;8.578;2023-07-29T02:14:57;30.27;;;23.88;;
23555;SDS011;11956;53.184;8.578;2023-07-29T02:17:58;28.85;;;24.02;;
23555;SDS011;11956;53.184;8.578;2023-07-29T02:20:59;28.33;;;22.13;;
23555;SDS011;11956;53.184;8.578;2023-07-29T02:24:00;31.70;;;26.13;;
23555;SDS011;11956;53.184;8.578;2023-07-29T02:27:01;36.35;;;28.98;;
23555;SDS011;11956;53.184;8.578;2023-07-29T02:30:02;33.88;;;26.08;;
23555;SDS011;11956;53.184;8.578;2023-07-29T02:33:04;40.92;;;29.17;;
23555;SDS011;11956;53.184;8.578;2023-07-29T02:36:04;33.50;;;26.90;;
23555;SDS011;11956;53.184;8.578;2023-07-29T02:39:05;42.85;;;29.73;;
23555;SDS011;11956;53.184;8.578;2023-07-29T02:42:07;34.60;;;27.23;;
23555;SDS011;11956;53.184;8.578;2023-07-29T02:45:08;32.30;;;24.60;;
23555;SDS011;11956;53.184;8.578;2023-07-29T02:48:10;27.87;;;24.57;;
23555;SDS011;11956;53.184;8.578;2023-07-29T02:51:11;34.25;;;28.20;;
23555;SDS011;11956;53.184;8.578;2023-07-29T02:54:12;40.42;;;28.33;;
23555;SDS011;11956;53.184;8.578;2023-07-29T02:57:13;31.45;;;25.75;;
23555;SDS011;11956;53.184;8.578;2023-07-29T03:00:14;27.88;;;24.35;;
23555;SDS011;11956;53.184;8.578;2023-07-29T03:03:15;37.90;;;29.02;;
23555;SDS011;11956;53.184;8.578;2023-07-29T03:06:16;52.85;;;33.70;;
23555;SDS011;11956;53.184;8.578;2023-07-29T03:09:17;49.97;;;32.95;;
23555;SDS011;11956;53.184;8.578;2023-07-29T03:12:18;37.80;;;28.73;;
23555;SDS011;11956;53.184;8.578;2023-07-29T03:15:19;39.05;;;29.65;;
23555;SDS011;11956;53.184;8.578;2023-07-29T03:18:24;44.40;;;32.08;;
23555;SDS011;11956;53.184;8.578;2023-07-29T03:21:25;40.08;;;29.58;;
23555;SDS011;11956;53.184;8.578;2023-07-29T03:24:25;42.90;;;30.05;;
23555;SDS011;11956;53.184;8.578;2023-07-29T03:27:27;71.72;;;42.97;;
23555;SDS011;11956;53.184;8.578;2023-07-29T03:30:28;50.45;;;34.55;;
23555;SDS011;11956;53.184;8.578;2023-07-29T03:33:29;48.40;;;32.25;;
23555;SDS011;11956;53.184;8.578;2023-07-29T03:36:30;55.38;;;37.30;;
23555;SDS011;11956;53.184;8.578;2023-07-29T03:39:30;53.30;;;35.70;;
23555;SDS011;11956;53.184;8.578;2023-07-29T03:42:32;59.42;;;38.95;;
23555;SDS011;11956;53.184;8.578;2023-07-29T03:45:33;53.92;;;36.45;;
23555;SDS011;11956;53.184;8.578;2023-07-29T03:48:35;48.75;;;34.90;;
23555;SDS011;11956;53.184;8.578;2023-07-29T03:51:36;72.80;;;38.58;;
23555;SDS011;11956;53.184;8.578;2023-07-29T03:54:37;75.18;;;39.70;;
23555;SDS011;11956;53.184;8.578;2023-07-29T03:57:38;45.70;;;32.80;;
23555;SDS011;11956;53.184;8.578;2023-07-29T04:00:39;51.35;;;33.58;;
23555;SDS011;11956;53.184;8.578;2023-07-29T04:03:40;52.35;;;34.38;;
23555;SDS011;11956;53.184;8.578;2023-07-29T04:06:41;51.97;;;34.97;;
23555;SDS011;11956;53.184;8.578;2023-07-29T04:09:42;44.20;;;31.77;;
23555;SDS011;11956;53.184;8.578;2023-07-29T04:12:44;71.23;;;41.23;;
23555;SDS011;11956;53.184;8.578;2023-07-29T04:15:45;51.22;;;33.78;;
23555;SDS011;11956;53.184;8.578;2023-07-29T04:18:46;58.72;;;37.38;;
23555;SDS011;11956;53.184;8.578;2023-07-29T04:21:47;63.80;;;40.78;;
23555;SDS011;11956;53.184;8.578;2023-07-29T04:24:50;53.58;;;36.45;;
23555;SDS011;11956;53.184;8.578;2023-07-29T04:27:51;49.35;;;34.13;;
23555;SDS011;11956;53.184;8.578;2023-07-29T04:30:53;49.42;;;34.78;;
23555;SDS011;11956;53.184;8.578;2023-07-29T04:33:55;50.50;;;34.75;;
23555;SDS011;11956;53.184;8.578;2023-07-29T04:36:56;50.95;;;33.65;;
23555;SDS011;11956;53.184;8.578;2023-07-29T04:39:57;48.17;;;33.15;;
23555;SDS011;11956;53.184;8.578;2023-07-29T04:42:59;46.67;;;33.53;;
23555;SDS011;11956;53.184;8.578;2023-07-29T04:46:01;47.85;;;33.60;;
23555;SDS011;11956;53.184;8.578;2023-07-29T04:49:02;47.22;;;32.58;;
23555;SDS011;11956;53.184;8.578;2023-07-29T04:52:03;46.05;;;33.10;;
23555;SDS011;11956;53.184;8.578;2023-07-29T04:55:05;49.42;;;34.38;;
23555;SDS011;11956;53.184;8.578;2023-07-29T04:58:06;41.95;;;29.52;;
23555;SDS011;11956;53.184;8.578;2023-07-29T05:01:07;56.10;;;36.28;;
23555;SDS011;11956;53.184;8.578;2023-07-29T05:04:08;44.63;;;31.35;;
23555;SDS011;11956;53.184;8.578;2023-07-29T05:07:09;60.72;;;37.50;;
23555;SDS011;11956;53.184;8.578;2023-07-29T05:10:10;44.17;;;32.08;;
23555;SDS011;11956;53.184;8.578;2023-07-29T05:13:11;47.63;;;32.95;;
23555;SDS011;11956;53.184;8.578;2023-07-29T05:16:12;39.38;;;28.63;;
23555;SDS011;11956;53.184;8.578;2023-07-29T05:19:13;34.38;;;26.45;;
23555;SDS011;11956;53.184;8.578;2023-07-29T05:22:14;33.50;;;26.08;;
23555;SDS011;11956;53.184;8.578;2023-07-29T05:25:15;39.22;;;28.45;;
23555;SDS011;11956;53.184;8.578;2023-07-29T05:28:16;30.33;;;24.02;;
23555;SDS011;11956;53.184;8.578;2023-07-29T05:31:17;33.75;;;26.38;;
23555;SDS011;11956;53.184;8.578;2023-07-29T05:37:21;31.67;;;25.27;;
23555;SDS011;11956;53.184;8.578;2023-07-29T05:40:22;29.58;;;24.08;;
23555;SDS011;11956;53.184;8.578;2023-07-29T05:43:24;29.77;;;23.55;;
23555;SDS011;11956;53.184;8.578;2023-07-29T05:46:25;36.80;;;24.80;;
23555;SDS011;11956;53.184;8.578;2023-07-29T05:49:26;28.80;;;23.00;;
23555;SDS011;11956;53.184;8.578;2023-07-29T05:52:27;27.10;;;21.67;;
23555;SDS011;11956;53.184;8.578;2023-07-29T05:55:29;30.05;;;23.77;;
23555;SDS011;11956;53.184;8.578;2023-07-29T05:58:30;29.30;;;23.58;;
23555;SDS011;11956;53.184;8.578;2023-07-29T06:01:31;31.50;;;23.95;;
23555;SDS011;11956;53.184;8.578;2023-07-29T06:04:32;25.40;;;20.77;;
23555;SDS011;11956;53.184;8.578;2023-07-29T06:07:33;24.50;;;19.65;;
23555;SDS011;11956;53.184;8.578;2023-07-29T06:10:34;23.08;;;19.15;;
23555;SDS011;11956;53.184;8.578;2023-07-29T06:13:36;21.55;;;18.30;;
23555;SDS011;11956;53.184;8.578;2023-07-29T06:16:37;21.65;;;17.23;;
23555;SDS011;11956;53.184;8.578;2023-07-29T06:19:37;23.15;;;18.45;;
23555;SDS011;11956;53.184;8.578;2023-07-29T06:22:38;20.88;;;17.85;;
23555;SDS011;11956;53.184;8.578;2023-07-29T06:25:39;20.55;;;17.95;;
23555;SDS011;11956;53.184;8.578;2023-07-29T06:28:40;20.15;;;16.52;;
23555;SDS011;11956;53.184;8.578;2023-07-29T06:31:41;20.98;;;15.80;;
23555;SDS011;11956;53.184;8.578;2023-07-29T06:34:42;21.65;;;17.55;;
23555;SDS011;11956;53.184;8.578;2023-07-29T06:37:43;18.73;;;15.15;;
23555;SDS011;11956;53.184;8.578;2023-07-29T06:40:44;22.70;;;16.95;;
23555;SDS011;11956;53.184;8.578;2023-07-29T06:43:45;20.58;;;16.17;;
23555;SDS011;11956;53.184;8.578;2023-07-29T06:46:46;15.70;;;13.75;;
23555;SDS011;11956;53.184;8.578;2023-07-29T06:49:47;12.98;;;11.50;;
23555;SDS011;11956;53.184;8.578;2023-07-29T06:52:47;15.85;;;13.20;;
23555;SDS011;11956;53.184;8.578;2023-07-29T06:55:49;14.45;;;11.85;;
23555;SDS011;11956;53.184;8.578;2023-07-29T06:58:50;11.27;;;10.07;;
23555;SDS011;11956;53.184;8.578;2023-07-29T07:01:51;10.77;;;9.68;;
23555;SDS011;11956;53.184;8.578;2023-07-29T07:04:51;11.10;;;8.52;;
23555;SDS011;11956;53.184;8.578;2023-07-29T07:07:52;10.07;;;7.68;;
23555;SDS011;11956;53.184;8.578;2023-07-29T07:10:53;8.52;;;6.78;;
23555;SDS011;11956;53.184;8.578;2023-07-29T07:13:54;9.82;;;7.18;;
23555;SDS011;11956;53.184;8.578;2023-07-29T07:16:55;7.93;;;6.78;;
23555;SDS011;11956;53.184;8.578;2023-07-29T07:19:55;5.85;;;4.93;;
23555;SDS011;11956;53.184;8.578;2023-07-29T07:22:56;6.88;;;4.85;;
23555;SDS011;11956;53.184;8.578;2023-07-29T07:25:57;5.50;;;4.05;;
23555;SDS011;11956;53.184;8.578;2023-07-29T07:28:58;5.50;;;4.10;;
23555;SDS011;11956;53.184;8.578;2023-07-29T07:31:59;7.10;;;4.20;;
23555;SDS011;11956;53.184;8.578;2023-07-29T07:35:02;8.70;;;4.78;;
23555;SDS011;11956;53.184;8.578;2023-07-29T07:38:04;4.95;;;3.90;;
23555;SDS011;11956;53.184;8.578;2023-07-29T07:44:08;4.85;;;3.80;;
23555;SDS011;11956;53.184;8.578;2023-07-29T07:47:09;3.78;;;3.40;;
23555;SDS011;11956;53.184;8.578;2023-07-29T07:50:10;3.78;;;3.28;;
23555;SDS011;11956;53.184;8.578;2023-07-29T07:53:11;4.55;;;3.30;;
23555;SDS011;11956;53.184;8.578;2023-07-29T07:56:12;4.78;;;3.60;;
23555;SDS011;11956;53.184;8.578;2023-07-29T07:59:13;6.53;;;3.42;;
23555;SDS011;11956;53.184;8.578;2023-07-29T08:02:14;4.25;;;3.10;;
23555;SDS011;11956;53.184;8.578;2023-07-29T08:05:15;4.32;;;2.60;;
23555;SDS011;11956;53.184;8.578;2023-07-29T08:08:16;4.78;;;2.85;;
23555;SDS011;11956;53.184;8.578;2023-07-29T08:11:17;4.90;;;2.75;;
23555;SDS011;11956;53.184;8.578;2023-07-29T08:14:18;4.93;;;3.17;;
23555;SDS011;11956;53.184;8.578;2023-07-29T08:17:19;7.45;;;2.92;;
23555;SDS011;11956;53.184;8.578;2023-07-29T08:20:20;4.00;;;2.63;;
23555;SDS011;11956;53.184;8.578;2023-07-29T08:23:21;3.97;;;2.47;;
23555;SDS011;11956;53.184;8.578;2023-07-29T08:26:22;3.08;;;2.47;;
23555;SDS011;11956;53.184;8.578;2023-07-29T08:29:23;3.88;;;2.25;;
23555;SDS011;11956;53.184;8.578;2023-07-29T08:32:23;3.55;;;2.10;;
23555;SDS011;11956;53.184;8.578;2023-07-29T08:35:24;3.03;;;2.40;;
23555;SDS011;11956;53.184;8.578;2023-07-29T08:38:25;5.38;;;3.03;;
23555;SDS011;11956;53.184;8.578;2023-07-29T08:41:29;3.88;;;2.72;;
23555;SDS011;11956;53.184;8.578;2023-07-29T08:44:42;5.10;;;3.17;;
23555;SDS011;11956;53.184;8.578;2023-07-29T08:47:44;3.03;;;2.72;;
23555;SDS011;11956;53.184;8.578;2023-07-29T08:50:45;5.38;;;2.60;;
23555;SDS011;11956;53.184;8.578;2023-07-29T08:53:46;5.32;;;2.67;;
23555;SDS011;11956;53.184;8.578;2023-07-29T08:56:48;3.78;;;2.75;;
23555;SDS011;11956;53.184;8.578;2023-07-29T08:59:49;3.47;;;2.53;;
23555;SDS011;11956;53.184;8.578;2023-07-29T09:02:50;6.07;;;3.13;;
23555;SDS011;11956;53.184;8.578;2023-07-29T09:05:51;4.05;;;2.47;;
23555;SDS011;11956;53.184;8.578;2023-07-29T09:08:55;3.47;;;2.50;;
23555;SDS011;11956;53.184;8.578;2023-07-29T09:11:57;4.88;;;2.85;;
23555;SDS011;11956;53.184;8.578;2023-07-29T09:14:57;3.78;;;3.08;;
23555;SDS011;11956;53.184;8.578;2023-07-29T09:17:58;3.67;;;2.65;;
23555;SDS011;11956;53.184;8.578;2023-07-29T09:21:00;4.18;;;2.30;;
23555;SDS011;11956;53.184;8.578;2023-07-29T09:24:02;4.30;;;2.90;;
23555;SDS011;11956;53.184;8.578;2023-07-29T09:27:07;5.25;;;2.38;;
23555;SDS011;11956;53.184;8.578;2023-07-29T09:30:15;3.70;;;2.45;;
23555;SDS011;11956;53.184;8.578;2023-07-29T09:33:17;3.75;;;2.90;;
23555;SDS011;11956;53.184;8.578;2023-07-29T09:36:20;5.68;;;2.88;;
23555;SDS011;11956;53.184;8.578;2023-07-29T09:39:22;3.00;;;2.38;;
23555;SDS011;11956;53.184;8.578;2023-07-29T09:42:24;2.88;;;1.98;;
23555;SDS011;11956;53.184;8.578;2023-07-29T09:45:25;3.03;;;1.60;;
23555;SDS011;11956;53.184;8.578;2023-07-29T09:48:27;4.87;;;3.17;;
23555;SDS011;11956;53.184;8.578;2023-07-29T09:51:28;2.25;;;1.40;;
23555;SDS011;11956;53.184;8.578;2023-07-29T09:54:30;3.78;;;2.40;;
23555;SDS011;11956;53.184;8.578;2023-07-29T09:57:31;2.20;;;1.67;;
23555;SDS011;11956;53.184;8.578;2023-07-29T10:00:33;2.50;;;1.25;;
23555;SDS011;11956;53.184;8.578;2023-07-29T10:03:35;3.27;;;1.63;;
23555;SDS011;11956;53.184;8.578;2023-07-29T10:06:36;4.73;;;1.80;;
23555;SDS011;11956;53.184;8.578;2023-07-29T10:09:38;3.63;;;1.90;;
23555;SDS011;11956;53.184;8.578;2023-07-29T10:12:40;3.30;;;1.80;;
23555;SDS011;11956;53.184;8.578;2023-07-29T10:15:42;3.80;;;1.65;;
23555;SDS011;11956;53.184;8.578;2023-07-29T10:18:45;2.97;;;1.70;;
23555;SDS011;11956;53.184;8.578;2023-07-29T10:21:46;3.30;;;1.75;;
23555;SDS011;11956;53.184;8.578;2023-07-29T10:24:50;3.03;;;2.20;;
23555;SDS011;11956;53.184;8.578;2023-07-29T10:28:12;3.92;;;1.90;;
23555;SDS011;11956;53.184;8.578;2023-07-29T10:31:16;2.63;;;1.85;;
23555;SDS011;11956;53.184;8.578;2023-07-29T10:34:17;3.35;;;1.70;;
23555;SDS011;11956;53.184;8.578;2023-07-29T10:37:21;2.55;;;1.58;;
23555;SDS011;11956;53.184;8.578;2023-07-29T10:40:23;2.80;;;1.77;;
23555;SDS011;11956;53.184;8.578;2023-07-29T10:43:34;3.90;;;1.90;;
23555;SDS011;11956;53.184;8.578;2023-07-29T10:46:38;5.35;;;2.22;;
23555;SDS011;11956;53.184;8.578;2023-07-29T10:49:42;2.58;;;1.90;;
23555;SDS011;11956;53.184;8.578;2023-07-29T10:52:50;3.40;;;1.88;;
23555;SDS011;11956;53.184;8.578;2023-07-29T10:55:52;3.60;;;2.20;;
23555;SDS011;11956;53.184;8.578;2023-07-29T10:58:55;3.25;;;2.05;;
23555;SDS011;11956;53.184;8.578;2023-07-29T11:02:17;1.77;;;1.55;;
23555;SDS011;11956;53.184;8.578;2023-07-29T11:05:21;2.10;;;1.40;;
23555;SDS011;11956;53.184;8.578;2023-07-29T11:08:29;1.70;;;1.60;;
23555;SDS011;11956;53.184;8.578;2023-07-29T11:11:30;2.55;;;1.83;;
23555;SDS011;11956;53.184;8.578;2023-07-29T11:14:31;3.78;;;2.35;;
23555;SDS011;11956;53.184;8.578;2023-07-29T11:17:32;2.38;;;1.75;;
23555;SDS011;11956;53.184;8.578;2023-07-29T11:20:36;3.42;;;1.50;;
23555;SDS011;11956;53.184;8.578;2023-07-29T11:23:37;3.97;;;1.80;;
23555;SDS011;11956;53.184;8.578;2023-07-29T11:26:38;2.00;;;1.48;;
23555;SDS011;11956;53.184;8.578;2023-07-29T11:29:47;2.88;;;1.65;;
23555;SDS011;11956;53.184;8.578;2023-07-29T11:32:48;3.20;;;1.58;;
23555;SDS011;11956;53.184;8.578;2023-07-29T11:35:50;1.80;;;1.30;;
23555;SDS011;11956;53.184;8.578;2023-07-29T11:38:50;2.05;;;1.20;;
23555;SDS011;11956;53.184;8.578;2023-07-29T11:41:51;2.10;;;1.13;;
23555;SDS011;11956;53.184;8.578;2023-07-29T11:44:52;2.58;;;1.55;;
23555;SDS011;11956;53.184;8.578;2023-07-29T11:47:53;2.92;;;1.85;;
23555;SDS011;11956;53.184;8.578;2023-07-29T11:50:54;2.58;;;2.00;;
23555;SDS011;11956;53.184;8.578;2023-07-29T11:53:55;1.60;;;1.13;;
23555;SDS011;11956;53.184;8.578;2023-07-29T11:56:56;2.42;;;1.50;;
23555;SDS011;11956;53.184;8.578;2023-07-29T11:59:57;2.33;;;1.52;;
23555;SDS011;11956;53.184;8.578;2023-07-29T12:02:58;4.25;;;1.92;;
23555;SDS011;11956;53.184;8.578;2023-07-29T12:06:00;5.68;;;2.08;;
23555;SDS011;11956;53.184;8.578;2023-07-29T12:09:01;2.28;;;1.30;;
23555;SDS011;11956;53.184;8.578;2023-07-29T12:12:06;4.13;;;1.90;;
23555;SDS011;11956;53.184;8.578;2023-07-29T12:15:07;2.25;;;1.52;;
23555;SDS011;11956;53.184;8.578;2023-07-29T12:18:09;3.33;;;1.90;;
23555;SDS011;11956;53.184;8.578;2023-07-29T12:21:13;3.97;;;1.67;;
23555;SDS011;11956;53.184;8.578;2023-07-29T12:24:15;5.78;;;1.70;;
23555;SDS011;11956;53.184;8.578;2023-07-29T12:27:15;4.22;;;1.85;;
23555;SDS011;11956;53.184;8.578;2023-07-29T12:30:19;4.03;;;1.70;;
23555;SDS011;11956;53.184;8.578;2023-07-29T12:33:32;4.75;;;2.05;;
23555;SDS011;11956;53.184;8.578;2023-07-29T12:36:46;4.30;;;1.50;;
23555;SDS011;11956;53.184;8.578;2023-07-29T12:39:50;2.65;;;1.58;;
23555;SDS011;11956;53.184;8.578;2023-07-29T12:42:51;3.17;;;1.77;;
23555;SDS011;11956;53.184;8.578;2023-07-29T12:45:53;3.47;;;1.70;;
23555;SDS011;11956;53.184;8.578;2023-07-29T12:48:54;2.95;;;1.70;;
23555;SDS011;11956;53.184;8.578;2023-07-29T12:51:55;3.83;;;2.70;;
23555;SDS011;11956;53.184;8.578;2023-07-29T12:54:57;3.33;;;1.40;;
23555;SDS011;11956;53.184;8.578;2023-07-29T12:57:58;4.30;;;1.80;;
23555;SDS011;11956;53.184;8.578;2023-07-29T13:00:59;2.38;;;1.42;;
23555;SDS011;11956;53.184;8.578;2023-07-29T13:04:00;3.85;;;1.85;;
23555;SDS011;11956;53.184;8.578;2023-07-29T13:07:01;3.60;;;1.48;;
23555;SDS011;11956;53.184;8.578;2023-07-29T13:10:01;2.33;;;1.40;;
23555;SDS011;11956;53.184;8.578;2023-07-29T13:13:03;3.28;;;1.60;;
23555;SDS011;11956;53.184;8.578;2023-07-29T13:16:04;5.82;;;1.92;;
23555;SDS011;11956;53.184;8.578;2023-07-29T13:19:06;3.17;;;1.40;;
23555;SDS011;11956;53.184;8.578;2023-07-29T13:22:06;3.97;;;1.80;;
23555;SDS011;11956;53.184;8.578;2023-07-29T13:25:08;3.00;;;1.48;;
23555;SDS011;11956;53.184;8.578;2023-07-29T13:28:09;3.47;;;1.30;;
23555;SDS011;11956;53.184;8.578;2023-07-29T13:31:11;2.80;;;1.40;;
23555;SDS011;11956;53.184;8.578;2023-07-29T13:34:13;2.40;;;1.10;;
23555;SDS011;11956;53.184;8.578;2023-07-29T13:37:14;5.55;;;1.42;;
23555;SDS011;11956;53.184;8.578;2023-07-29T13:40:15;2.92;;;1.83;;
23555;SDS011;11956;53.184;8.578;2023-07-29T13:43:16;4.30;;;1.40;;
23555;SDS011;11956;53.184;8.578;2023-07-29T13:46:18;2.45;;;1.48;;
23555;SDS011;11956;53.184;8.578;2023-07-29T13:49:21;3.72;;;1.90;;
23555;SDS011;11956;53.184;8.578;2023-07-29T13:52:22;3.70;;;1.88;;
23555;SDS011;11956;53.184;8.578;2023-07-29T13:55:23;5.97;;;1.85;;
23555;SDS011;11956;53.184;8.578;2023-07-29T13:58:24;4.63;;;1.45;;
23555;SDS011;11956;53.184;8.578;2023-07-29T14:01:26;7.00;;;1.40;;
23555;SDS011;11956;53.184;8.578;2023-07-29T14:04:27;3.53;;;1.02;;
23555;SDS011;11956;53.184;8.578;2023-07-29T14:07:29;6.05;;;2.92;;
23555;SDS011;11956;53.184;8.578;2023-07-29T14:10:30;3.97;;;1.50;;
23555;SDS011;11956;53.184;8.578;2023-07-29T14:13:31;4.65;;;1.63;;
23555;SDS011;11956;53.184;8.578;2023-07-29T14:16:32;2.22;;;1.20;;
23555;SDS011;11956;53.184;8.578;2023-07-29T14:19:33;1.92;;;1.02;;
23555;SDS011;11956;53.184;8.578;2023-07-29T14:22:34;1.70;;;1.00;;
23555;SDS011;11956;53.184;8.578;2023-07-29T14:25:36;3.05;;;0.93;;
23555;SDS011;11956;53.184;8.578;2023-07-29T14:28:36;1.95;;;1.05;;
23555;SDS011;11956;53.184;8.578;2023-07-29T14:31:37;2.15;;;1.55;;
23555;SDS011;11956;53.184;8.578;2023-07-29T14:34:38;3.92;;;1.52;;
23555;SDS011;11956;53.184;8.578;2023-07-29T14:37:39;2.97;;;1.60;;
23555;SDS011;11956;53.184;8.578;2023-07-29T14:40:40;3.38;;;1.55;;
23555;SDS011;11956;53.184;8.578;2023-07-29T14:43:41;3.22;;;1.60;;
23555;SDS011;11956;53.184;8.578;2023-07-29T14:46:42;2.38;;;1.55;;
23555;SDS011;11956;53.184;8.578;2023-07-29T14:49:43;2.08;;;1.70;;
23555;SDS011;11956;53.184;8.578;2023-07-29T14:52:45;3.28;;;2.05;;
23555;SDS011;11956;53.184;8.578;2023-07-29T14:55:46;4.45;;;3.13;;
23555;SDS011;11956;53.184;8.578;2023-07-29T14:58:47;4.18;;;3.15;;
23555;SDS011;11956;53.184;8.578;2023-07-29T15:01:49;6.20;;;3.03;;
23555;SDS011;11956;53.184;8.578;2023-07-29T15:04:50;3.70;;;2.35;;
23555;SDS011;11956;53.184;8.578;2023-07-29T15:07:51;1.98;;;1.60;;
23555;SDS011;11956;53.184;8.578;2023-07-29T15:10:52;1.67;;;1.58;;
23555;SDS011;11956;53.184;8.578;2023-07-29T15:13:54;2.30;;;1.33;;
23555;SDS011;11956;53.184;8.578;2023-07-29T15:16:54;2.17;;;1.30;;
23555;SDS011;11956;53.184;8.578;2023-07-29T15:19:55;2.20;;;1.50;;
23555;SDS011;11956;53.184;8.578;2023-07-29T15:22:57;3.53;;;1.60;;
23555;SDS011;11956;53.184;8.578;2023-07-29T15:25:58;2.60;;;2.08;;
23555;SDS011;11956;53.184;8.578;2023-07-29T15:29:00;3.63;;;2.33;;
23555;SDS011;11956;53.184;8.578;2023-07-29T15:35:03;5.63;;;2.50;;
23555;SDS011;11956;53.184;8.578;2023-07-29T15:38:04;7.50;;;3.20;;
23555;SDS011;11956;53.184;8.578;2023-07-29T15:41:06;4.68;;;2.65;;
23555;SDS011;11956;53.184;8.578;2023-07-29T15:44:07;3.20;;;2.38;;
23555;SDS011;11956;53.184;8.578;2023-07-29T15:47:07;3.33;;;2.85;;
23555;SDS011;11956;53.184;8.578;2023-07-29T15:50:09;4.63;;;2.97;;
23555;SDS011;11956;53.184;8.578;2023-07-29T15:53:11;3.88;;;3.33;;
23555;SDS011;11956;53.184;8.578;2023-07-29T15:56:11;7.20;;;3.50;;
23555;SDS011;11956;53.184;8.578;2023-07-29T15:59:12;5.57;;;3.40;;
23555;SDS011;11956;53.184;8.578;2023-07-29T16:02:13;5.07;;;3.00;;
23555;SDS011;11956;53.184;8.578;2023-07-29T16:05:14;6.35;;;3.40;;
23555;SDS011;11956;53.184;8.578;2023-07-29T16:08:15;4.50;;;2.58;;
23555;SDS011;11956;53.184;8.578;2023-07-29T16:11:16;5.35;;;2.30;;
23555;SDS011;11956;53.184;8.578;2023-07-29T16:14:17;6.00;;;2.60;;
23555;SDS011;11956;53.184;8.578;2023-07-29T16:17:19;2.92;;;2.28;;
23555;SDS011;11956;53.184;8.578;2023-07-29T16:20:20;5.75;;;3.42;;
23555;SDS011;11956;53.184;8.578;2023-07-29T16:23:21;4.45;;;2.40;;
23555;SDS011;11956;53.184;8.578;2023-07-29T16:26:22;3.22;;;1.73;;
23555;SDS011;11956;53.184;8.578;2023-07-29T16:29:22;2.90;;;1.65;;
23555;SDS011;11956;53.184;8.578;2023-07-29T16:32:23;1.52;;;1.42;;
23555;SDS011;11956;53.184;8.578;2023-07-29T16:35:24;3.85;;;1.80;;
23555;SDS011;11956;53.184;8.578;2023-07-29T16:38:25;2.13;;;1.40;;
23555;SDS011;11956;53.184;8.578;2023-07-29T16:41:26;3.55;;;2.20;;
23555;SDS011;11956;53.184;8.578;2023-07-29T16:44:27;2.90;;;1.60;;
23555;SDS011;11956;53.184;8.578;2023-07-29T16:47:28;3.63;;;1.75;;
23555;SDS011;11956;53.184;8.578;2023-07-29T16:50:29;2.95;;;1.80;;
23555;SDS011;11956;53.184;8.578;2023-07-29T16:53:30;2.58;;;1.60;;
23555;SDS011;11956;53.184;8.578;2023-07-29T16:56:31;2.50;;;1.50;;
23555;SDS011;11956;53.184;8.578;2023-07-29T16:59:32;2.47;;;1.50;;
23555;SDS011;11956;53.184;8.578;2023-07-29T17:02:33;4.78;;;1.70;;
23555;SDS011;11956;53.184;8.578;2023-07-29T17:05:34;2.55;;;1.90;;
23555;SDS011;11956;53.184;8.578;2023-07-29T17:08:35;5.22;;;1.67;;
23555;SDS011;11956;53.184;8.578;2023-07-29T17:11:36;4.95;;;1.83;;
23555;SDS011;11956;53.184;8.578;2023-07-29T17:14:37;2.22;;;1.80;;
23555;SDS011;11956;53.184;8.578;2023-07-29T17:17:38;2.33;;;1.30;;
23555;SDS011;11956;53.184;8.578;2023-07-29T17:20:39;1.98;;;1.50;;
23555;SDS011;11956;53.184;8.578;2023-07-29T17:23:40;2.15;;;1.40;;
23555;SDS011;11956;53.184;8.578;2023-07-29T17:26:41;2.38;;;1.60;;
23555;SDS011;11956;53.184;8.578;2023-07-29T17:29:42;3.03;;;1.30;;
23555;SDS011;11956;53.184;8.578;2023-07-29T17:32:43;4.05;;;1.35;;
23555;SDS011;11956;53.184;8.578;2023-07-29T17:35:44;2.22;;;1.50;;
23555;SDS011;11956;53.184;8.578;2023-07-29T17:38:46;3.28;;;1.30;;
23555;SDS011;11956;53.184;8.578;2023-07-29T17:41:47;2.20;;;1.27;;
23555;SDS011;11956;53.184;8.578;2023-07-29T17:44:48;3.55;;;1.80;;
23555;SDS011;11956;53.184;8.578;2023-07-29T17:47:48;3.63;;;1.70;;
23555;SDS011;11956;53.184;8.578;2023-07-29T17:50:49;2.63;;;1.40;;
23555;SDS011;11956;53.184;8.578;2023-07-29T17:53:50;2.92;;;1.40;;
23555;SDS011;11956;53.184;8.578;2023-07-29T17:56:51;1.75;;;1.50;;
23555;SDS011;11956;53.184;8.578;2023-07-29T17:59:52;2.83;;;1.48;;
23555;SDS011;11956;53.184;8.578;2023-07-29T18:02:53;4.72;;;1.90;;
23555;SDS011;11956;53.184;8.578;2023-07-29T18:05:55;2.50;;;1.30;;
23555;SDS011;11956;53.184;8.578;2023-07-29T18:08:56;2.35;;;1.40;;
23555;SDS011;11956;53.184;8.578;2023-07-29T18:11:57;3.05;;;1.45;;
23555;SDS011;11956;53.184;8.578;2023-07-29T18:15:01;4.72;;;1.88;;